Time;durP1;ratioP1;P1;durP2;ratioP2;P2;SDS_P1;SDS_P2;PMS_P1;PMS_P2;Temp;Humidity;BMP_temperature;BMP_pressure;BME280_temperature;BME280_humidity;BME280_pressure;Samples;Min_cycle;Max_cycle;Signal;HPM_P1;HPM_P2
2023/02/01 00:01:50;;;;;;;6.40;1.45;;;6.70;84.80;;;;;;5027109;28;20117;-70
2023/02/01 00:04:16;;;;;;;3.92;0.93;;;6.70;84.70;;;;;;5027831;28;20033;-70
2023/02/01 00:06:41;;;;;;;2.95;1.10;;;6.70;84.60;;;;;;5026780;28;20022;-69
2023/02/01 00:09:07;;;;;;;2.17;1.00;;;6.70;84.50;;;;;;5024362;28;20079;-70
2023/02/01 00:11:33;;;;;;;5.43;1.52;;;6.70;84.50;;;;;;5026552;28;20021;-70
2023/02/01 00:13:58;;;;;;;6.97;1.35;;;6.80;84.30;;;;;;5027039;28;20144;-69
2023/02/01 00:16:27;;;;;;;4.95;0.88;;;6.80;84.30;;;;;;5027820;28;20021;-70
2023/02/01 00:18:58;;;;;;;5.30;1.48;;;6.70;84.00;;;;;;5026046;28;20025;-70
2023/02/01 00:21:24;;;;;;;1.83;0.77;;;6.80;84.10;;;;;;5024730;28;20021;-69
2023/02/01 00:23:49;;;;;;;1.83;1.00;;;6.80;84.10;;;;;;5024558;28;20036;-69
2023/02/01 00:26:36;;;;;;;3.10;1.10;;;6.70;83.90;;;;;;5027292;28;20032;-69
2023/02/01 00:29:05;;;;;;;2.75;1.25;;;6.70;84.10;;;;;;5024764;28;20045;-70
2023/02/01 00:31:31;;;;;;;2.13;1.30;;;6.70;84.00;;;;;;5029381;28;20031;-68
2023/02/01 00:33:56;;;;;;;4.18;1.05;;;6.70;84.10;;;;;;5024361;28;20025;-68
2023/02/01 00:36:22;;;;;;;5.80;1.17;;;6.70;83.90;;;;;;5029124;28;20021;-69
2023/02/01 00:38:47;;;;;;;4.18;0.90;;;6.70;83.90;;;;;;5027798;28;20143;-68
2023/02/01 00:41:18;;;;;;;1.38;1.05;;;6.70;83.90;;;;;;5026149;28;20160;-68
2023/02/01 00:43:45;;;;;;;4.60;1.30;;;6.70;83.90;;;;;;5031685;28;20581;-68
2023/02/01 00:46:11;;;;;;;3.35;1.27;;;6.70;83.90;;;;;;5031660;28;20499;-69
2023/02/01 00:48:37;;;;;;;2.47;0.98;;;6.70;83.70;;;;;;5030145;28;20033;-69
2023/02/01 00:51:09;;;;;;;3.13;1.05;;;6.70;83.70;;;;;;5030162;28;20025;-69
2023/02/01 00:53:35;;;;;;;6.07;0.98;;;6.70;83.70;;;;;;5032160;28;20083;-68
2023/02/01 00:56:00;;;;;;;4.50;1.23;;;6.70;83.60;;;;;;5031250;28;20494;-69
2023/02/01 00:58:26;;;;;;;7.25;1.23;;;6.70;83.60;;;;;;5032010;28;20040;-69
2023/02/01 01:01:15;;;;;;;7.57;1.60;;;6.70;83.70;;;;;;5028865;28;20036;-68
2023/02/01 01:03:45;;;;;;;2.80;1.00;;;6.70;83.70;;;;;;5033994;28;20020;-68
2023/02/01 01:06:20;;;;;;;1.58;0.95;;;6.70;83.70;;;;;;5034804;28;20045;-68
2023/02/01 01:08:46;;;;;;;1.27;0.77;;;6.70;83.70;;;;;;5031791;28;20391;-69
2023/02/01 01:11:18;;;;;;;3.47;0.93;;;6.70;83.60;;;;;;5031543;28;20025;-69
2023/02/01 01:13:47;;;;;;;0.90;0.80;;;6.70;83.70;;;;;;5033449;28;20100;-69
2023/02/01 01:16:12;;;;;;;2.60;1.02;;;6.70;83.60;;;;;;5031921;28;20034;-68
2023/02/01 01:18:38;;;;;;;2.28;1.20;;;6.70;83.80;;;;;;5029396;28;20524;-69
2023/02/01 01:21:05;;;;;;;2.33;1.00;;;6.70;83.70;;;;;;5030632;28;20083;-68
2023/02/01 01:23:31;;;;;;;1.50;0.90;;;6.70;83.80;;;;;;5028975;28;20048;-68
2023/02/01 01:25:58;;;;;;;2.45;1.00;;;6.70;83.80;;;;;;5031754;28;20075;-69
2023/02/01 01:28:23;;;;;;;3.53;1.00;;;6.60;83.90;;;;;;5030429;28;20487;-69
2023/02/01 01:30:49;;;;;;;2.63;0.80;;;6.60;84.00;;;;;;5030962;28;20022;-68
2023/02/01 01:33:14;;;;;;;8.10;1.05;;;6.60;84.00;;;;;;5033996;28;20034;-69
2023/02/01 01:35:40;;;;;;;4.53;0.80;;;6.60;84.00;;;;;;5031651;28;20033;-69
2023/02/01 01:38:05;;;;;;;5.72;1.23;;;6.60;84.10;;;;;;5033161;28;20065;-68
2023/02/01 01:40:31;;;;;;;4.63;0.88;;;6.60;84.10;;;;;;5028917;28;20099;-68
2023/02/01 01:42:57;;;;;;;3.75;1.23;;;6.60;84.10;;;;;;5031766;28;20039;-68
2023/02/01 01:45:34;;;;;;;1.83;0.93;;;6.60;84.00;;;;;;5032376;28;20407;-68
2023/02/01 01:48:23;;;;;;;2.95;0.80;;;6.60;84.10;;;;;;5023303;28;20469;-68
2023/02/01 01:50:56;;;;;;;1.92;0.90;;;6.70;84.10;;;;;;5025172;28;20022;-69
2023/02/01 01:53:27;;;;;;;6.75;1.00;;;6.60;84.00;;;;;;5025958;28;20037;-68
2023/02/01 01:55:55;;;;;;;2.80;1.17;;;6.70;84.70;;;;;;5026388;28;20030;-69
2023/02/01 01:58:25;;;;;;;5.25;1.00;;;6.70;84.10;;;;;;5043126;28;20037;-68
2023/02/01 02:00:51;;;;;;;2.70;1.05;;;6.60;84.00;;;;;;5027261;28;20025;-68
2023/02/01 02:03:38;;;;;;;5.53;1.10;;;6.60;84.10;;;;;;5032291;28;20053;-68
2023/02/01 02:06:13;;;;;;;1.85;0.93;;;6.70;84.20;;;;;;5031969;28;20032;-68
2023/02/01 02:08:39;;;;;;;2.70;0.93;;;6.70;84.10;;;;;;5030398;28;20041;-68
2023/02/01 02:11:04;;;;;;;2.17;0.90;;;6.70;84.10;;;;;;5032677;28;20157;-68
2023/02/01 02:13:30;;;;;;;3.17;1.10;;;6.70;84.10;;;;;;5026250;28;20402;-68
2023/02/01 02:16:06;;;;;;;9.63;1.38;;;6.60;83.90;;;;;;5030494;28;20037;-69
2023/02/01 02:18:48;;;;;;;2.05;0.90;;;6.60;84.00;;;;;;5032966;28;20060;-69
2023/02/01 02:21:22;;;;;;;2.17;1.40;;;6.60;84.10;;;;;;5030119;28;20033;-69
2023/02/01 02:24:11;;;;;;;2.58;0.80;;;6.60;84.10;;;;;;5031487;28;20035;-69
2023/02/01 02:27:01;;;;;;;4.18;1.10;;;6.60;84.10;;;;;;5028304;28;20030;-70
2023/02/01 02:29:59;;;;;;;3.90;1.10;;;6.60;84.10;;;;;;5027346;28;20100;-69
2023/02/01 02:33:02;;;;;;;4.10;1.30;;;6.60;84.00;;;;;;5032069;28;20385;-70
2023/02/01 02:35:58;;;;;;;4.07;1.05;;;6.60;84.10;;;;;;5028075;28;20450;-70
2023/02/01 02:38:47;;;;;;;5.00;1.40;;;6.70;84.00;;;;;;5026459;28;20072;-69
2023/02/01 02:47:41;;;;;;;4.90;1.02;;;6.60;83.80;;;;;;5027925;28;20044;-69
2023/02/01 03:04:17;;;;;;;7.68;1.50;;;6.60;83.90;;;;;;5030792;28;20047;-70
2023/02/01 03:06:45;;;;;;;6.28;1.42;;;6.60;84.00;;;;;;5025971;28;20021;-69
2023/02/01 03:09:27;;;;;;;2.80;0.88;;;6.60;84.10;;;;;;5026624;28;20017;-69
2023/02/01 03:14:50;;;;;;;3.80;0.90;;;6.60;84.10;;;;;;5028896;28;20040;-69
2023/02/01 03:17:21;;;;;;;1.70;1.00;;;6.60;84.00;;;;;;5027912;28;20412;-69
2023/02/01 03:19:50;;;;;;;3.63;1.00;;;6.60;84.00;;;;;;5025054;28;20049;-69
2023/02/01 03:22:31;;;;;;;2.13;0.93;;;6.60;84.00;;;;;;5025726;28;20045;-70
2023/02/01 03:25:04;;;;;;;4.15;1.00;;;6.60;84.00;;;;;;5024434;28;20181;-69
2023/02/01 03:27:41;;;;;;;2.10;0.93;;;6.60;84.10;;;;;;5027091;28;20017;-69
2023/02/01 03:30:25;;;;;;;1.98;0.77;;;6.60;84.20;;;;;;5025882;28;20057;-69
2023/02/01 03:33:01;;;;;;;4.00;1.10;;;6.60;84.30;;;;;;5028197;28;20033;-69
2023/02/01 03:35:55;;;;;;;2.67;1.17;;;6.60;84.30;;;;;;5025051;28;20063;-70
2023/02/01 03:38:39;;;;;;;7.13;1.55;;;6.50;84.40;;;;;;5030015;28;20053;-69
2023/02/01 03:41:41;;;;;;;5.45;1.77;;;6.60;84.50;;;;;;5029113;28;20046;-69
2023/02/01 03:44:15;;;;;;;;;;;6.60;84.50;;;;;;5032396;28;20771;-69
2023/02/01 03:47:04;;;;;;;4.07;1.33;;;6.60;84.40;;;;;;5027627;28;19918;-69
2023/02/01 03:49:41;;;;;;;3.28;1.08;;;6.60;84.40;;;;;;5028687;28;20109;-69
2023/02/01 03:52:11;;;;;;;2.13;0.82;;;6.70;84.40;;;;;;5027765;28;20117;-69
2023/02/01 03:54:37;;;;;;;2.15;1.10;;;6.70;84.30;;;;;;5027319;28;20025;-69
2023/02/01 03:57:09;;;;;;;5.35;1.00;;;6.70;84.30;;;;;;5030177;28;20029;-70
2023/02/01 03:59:40;;;;;;;3.10;1.05;;;6.70;84.30;;;;;;5027121;28;20022;-70
2023/02/01 04:02:06;;;;;;;4.32;1.30;;;6.80;84.30;;;;;;5030825;28;20027;-70
2023/02/01 04:04:32;;;;;;;1.42;0.85;;;6.70;84.30;;;;;;5028708;28;20071;-70
2023/02/01 04:06:58;;;;;;;3.70;1.15;;;6.70;84.40;;;;;;5027884;28;20044;-70
2023/02/01 04:09:23;;;;;;;3.58;0.90;;;6.70;84.60;;;;;;5030106;28;20504;-70
2023/02/01 04:11:49;;;;;;;4.20;1.00;;;6.70;84.60;;;;;;5028668;28;20048;-70
2023/02/01 04:14:14;;;;;;;4.88;1.10;;;6.70;84.70;;;;;;5026534;28;20037;-69
2023/02/01 04:16:40;;;;;;;4.63;1.08;;;6.60;84.70;;;;;;5027179;28;20060;-69
2023/02/01 04:19:06;;;;;;;4.00;1.05;;;6.70;84.90;;;;;;5027579;28;20045;-69
2023/02/01 04:21:31;;;;;;;2.83;1.00;;;6.70;84.90;;;;;;5028604;28;20068;-69
2023/02/01 04:23:57;;;;;;;5.13;1.33;;;6.70;84.80;;;;;;5029056;28;20060;-69
2023/02/01 04:26:23;;;;;;;7.53;1.48;;;6.70;84.80;;;;;;5026845;28;20509;-69
2023/02/01 04:28:48;;;;;;;3.22;1.20;;;6.70;84.70;;;;;;5025910;28;20032;-69
2023/02/01 04:31:15;;;;;;;4.60;1.15;;;6.80;84.80;;;;;;5029691;28;20588;-70
2023/02/01 04:33:41;;;;;;;2.67;1.00;;;6.80;84.70;;;;;;5025077;28;20018;-70
2023/02/01 04:36:06;;;;;;;3.45;0.90;;;6.80;84.70;;;;;;5027085;28;20030;-70
2023/02/01 04:38:32;;;;;;;2.35;0.95;;;6.80;84.70;;;;;;5025650;28;20033;-69
2023/02/01 04:40:58;;;;;;;3.83;1.20;;;6.80;84.70;;;;;;5026652;28;20542;-70
2023/02/01 04:43:24;;;;;;;6.85;1.02;;;6.90;84.70;;;;;;5030110;28;20156;-70
2023/02/01 04:45:50;;;;;;;6.43;1.38;;;6.90;84.50;;;;;;5026942;28;20105;-70
2023/02/01 04:48:17;;;;;;;6.00;1.83;;;6.90;84.30;;;;;;5024637;28;20391;-70
2023/02/01 04:50:45;;;;;;;4.65;1.52;;;7.00;84.20;;;;;;5026374;28;20022;-70
2023/02/01 04:53:11;;;;;;;3.65;1.25;;;7.00;84.10;;;;;;5027992;28;20050;-69
2023/02/01 04:55:37;;;;;;;6.13;1.02;;;7.10;84.00;;;;;;5026896;28;20037;-69
2023/02/01 04:58:02;;;;;;;4.60;1.08;;;7.10;83.90;;;;;;5027588;28;20021;-70
2023/02/01 05:00:28;;;;;;;7.30;1.15;;;7.20;84.00;;;;;;5026888;28;20022;-70
2023/02/01 05:02:53;;;;;;;2.42;0.90;;;7.20;83.80;;;;;;5026934;28;20105;-70
2023/02/01 05:05:19;;;;;;;2.15;0.88;;;7.20;83.80;;;;;;5025750;28;20092;-70
2023/02/01 05:07:46;;;;;;;1.95;1.17;;;7.20;83.70;;;;;;5026401;28;20044;-70
2023/02/01 05:10:12;;;;;;;6.95;1.23;;;7.30;83.70;;;;;;5028008;28;20045;-69
2023/02/01 05:15:21;;;;;;;5.45;1.13;;;7.30;83.50;;;;;;5026963;28;20052;-69
2023/02/01 05:17:47;;;;;;;7.30;1.40;;;7.30;83.30;;;;;;5025878;28;20033;-69
2023/02/01 05:20:12;;;;;;;4.97;1.23;;;7.30;83.20;;;;;;5025315;28;20034;-68
2023/02/01 05:22:38;;;;;;;4.47;1.30;;;7.30;83.30;;;;;;5027582;28;20087;-68
2023/02/01 05:25:04;;;;;;;2.78;0.85;;;7.40;83.40;;;;;;5026020;28;20053;-68
2023/02/01 05:27:30;;;;;;;4.32;1.25;;;7.40;83.30;;;;;;5025925;28;20164;-69
2023/02/01 05:29:56;;;;;;;4.50;1.38;;;7.40;83.20;;;;;;5027067;28;20025;-68
2023/02/01 05:32:21;;;;;;;5.13;1.30;;;7.50;83.20;;;;;;5029656;28;20026;-68
2023/02/01 05:34:47;;;;;;;3.03;1.13;;;7.50;83.20;;;;;;5030965;28;20034;-71
2023/02/01 05:37:12;;;;;;;3.55;0.98;;;7.50;83.10;;;;;;5024939;28;20052;-69
2023/02/01 05:39:38;;;;;;;5.03;1.33;;;7.50;83.10;;;;;;5029185;28;20026;-69
2023/02/01 05:42:03;;;;;;;1.92;1.00;;;7.50;83.00;;;;;;5029600;28;20026;-70
2023/02/01 05:44:29;;;;;;;3.10;1.00;;;7.50;83.00;;;;;;5029689;28;20654;-70
2023/02/01 05:46:54;;;;;;;3.15;1.00;;;7.50;82.90;;;;;;5030152;28;20022;-70
2023/02/01 05:49:20;;;;;;;3.05;0.93;;;7.50;83.00;;;;;;5028947;28;20025;-70
2023/02/01 05:51:46;;;;;;;3.63;0.85;;;7.50;83.00;;;;;;5031172;28;20049;-70
2023/02/01 05:54:11;;;;;;;7.47;1.15;;;7.50;82.90;;;;;;5032960;28;20488;-68
2023/02/01 05:56:37;;;;;;;2.47;1.00;;;7.50;82.90;;;;;;5030302;28;20387;-69
2023/02/01 05:59:02;;;;;;;5.47;1.13;;;7.50;83.00;;;;;;5027862;28;20041;-69
2023/02/01 06:01:28;;;;;;;3.50;1.20;;;7.50;83.00;;;;;;5030995;28;20025;-69
2023/02/01 06:03:53;;;;;;;2.05;0.85;;;7.60;83.10;;;;;;5029547;28;20057;-69
2023/02/01 06:06:19;;;;;;;3.53;1.00;;;7.50;83.50;;;;;;5031727;28;20036;-69
2023/02/01 06:08:45;;;;;;;4.82;1.20;;;7.50;82.90;;;;;;5030267;28;20035;-70
2023/02/01 06:11:10;;;;;;;2.28;1.08;;;7.50;83.00;;;;;;5031604;28;20069;-70
2023/02/01 06:13:38;;;;;;;5.78;1.33;;;7.60;83.00;;;;;;5029167;28;20021;-69
2023/02/01 06:16:05;;;;;;;5.90;1.50;;;7.50;83.00;;;;;;5030157;28;20060;-70
2023/02/01 06:18:31;;;;;;;4.43;1.10;;;7.60;83.10;;;;;;5029937;28;20518;-70
2023/02/01 06:20:59;;;;;;;7.80;1.40;;;7.60;83.00;;;;;;5028866;28;20049;-69
2023/02/01 06:23:25;;;;;;;6.25;1.25;;;7.60;83.00;;;;;;5028067;28;20120;-69
2023/02/01 06:26:02;;;;;;;6.82;1.25;;;7.50;82.90;;;;;;5024703;28;20104;-70
2023/02/01 06:28:29;;;;;;;9.02;1.33;;;7.50;82.90;;;;;;5028596;28;20053;-73
2023/02/01 06:30:54;;;;;;;7.07;1.30;;;7.50;82.90;;;;;;5031547;28;20434;-72
2023/02/01 06:33:20;;;;;;;9.43;1.80;;;7.60;82.90;;;;;;5027195;28;20033;-72
2023/02/01 06:35:46;;;;;;;2.90;1.08;;;7.60;82.70;;;;;;5027300;28;20033;-71
2023/02/01 06:38:12;;;;;;;6.15;1.15;;;7.60;82.80;;;;;;5027066;28;20583;-72
2023/02/01 06:40:39;;;;;;;6.00;1.50;;;7.60;82.80;;;;;;5027159;28;20100;-71
2023/02/01 06:43:05;;;;;;;5.40;1.42;;;7.60;82.80;;;;;;5031148;28;20424;-70
2023/02/01 06:45:30;;;;;;;2.88;0.95;;;7.60;82.80;;;;;;5030940;28;20040;-71
2023/02/01 06:47:57;;;;;;;2.83;1.10;;;7.60;82.80;;;;;;5035078;28;20036;-70
2023/02/01 06:50:23;;;;;;;4.07;1.17;;;7.70;82.90;;;;;;5028034;28;20040;-71
2023/02/01 06:52:48;;;;;;;2.65;1.10;;;7.60;82.80;;;;;;5034764;28;20033;-71
2023/02/01 06:55:14;;;;;;;4.13;0.90;;;7.60;82.90;;;;;;5032334;28;20034;-73
2023/02/01 06:57:40;;;;;;;2.90;0.90;;;7.60;82.80;;;;;;5029142;28;20021;-71
2023/02/01 07:00:06;;;;;;;3.60;1.20;;;7.70;82.80;;;;;;5025000;28;20029;-73
2023/02/01 07:02:31;;;;;;;4.45;1.38;;;7.60;82.80;;;;;;5032245;28;20037;-72
2023/02/01 07:04:57;;;;;;;6.72;1.63;;;7.60;82.80;;;;;;5031200;28;20036;-70
2023/02/01 07:07:23;;;;;;;7.15;1.15;;;7.60;82.80;;;;;;5026657;28;20480;-71
2023/02/01 07:09:49;;;;;;;5.07;1.17;;;7.60;82.90;;;;;;5026916;28;20060;-70
2023/02/01 07:12:15;;;;;;;2.20;0.93;;;7.60;82.90;;;;;;5029290;28;20024;-70
2023/02/01 07:14:41;;;;;;;3.10;1.00;;;7.60;82.90;;;;;;5033221;28;20392;-70
2023/02/01 07:17:06;;;;;;;3.45;1.10;;;7.60;83.00;;;;;;5028990;28;20108;-69
2023/02/01 07:19:32;;;;;;;2.00;1.05;;;7.60;82.90;;;;;;5028190;28;20052;-71
2023/02/01 07:21:58;;;;;;;7.80;1.70;;;7.60;82.90;;;;;;5028107;28;20074;-70
2023/02/01 07:24:23;;;;;;;1.80;1.02;;;7.50;82.90;;;;;;5026984;28;20415;-71
2023/02/01 07:26:50;;;;;;;5.18;1.45;;;7.50;83.10;;;;;;5026769;28;20139;-70
2023/02/01 07:29:17;;;;;;;10.65;1.95;;;7.50;83.10;;;;;;5025391;28;20568;-70
2023/02/01 07:31:43;;;;;;;3.28;1.25;;;7.50;83.20;;;;;;5022129;28;20053;-70
2023/02/01 07:34:08;;;;;;;2.97;0.95;;;7.40;83.20;;;;;;5027289;28;20052;-70
2023/02/01 07:36:36;;;;;;;4.68;1.10;;;7.50;83.20;;;;;;5027128;28;20034;-70
2023/02/01 07:39:02;;;;;;;3.13;1.08;;;7.40;83.80;;;;;;5022666;28;21496;-70
2023/02/01 07:41:27;;;;;;;3.47;1.00;;;7.40;83.20;;;;;;5026742;28;20025;-70
2023/02/01 07:43:53;;;;;;;6.00;1.42;;;7.50;83.40;;;;;;5023546;28;20381;-70
2023/02/01 07:46:19;;;;;;;2.65;1.17;;;7.40;83.20;;;;;;5027181;28;20037;-70
2023/02/01 07:48:45;;;;;;;7.38;1.20;;;7.40;83.30;;;;;;5025497;28;20032;-70
2023/02/01 07:51:13;;;;;;;5.00;1.40;;;7.40;83.40;;;;;;5031215;28;20112;-70
2023/02/01 07:53:40;;;;;;;2.47;1.05;;;7.40;83.50;;;;;;5024832;28;20018;-70
2023/02/01 07:56:12;;;;;;;8.13;1.40;;;7.40;83.40;;;;;;5023557;28;20030;-71
2023/02/01 07:58:38;;;;;;;1.67;1.25;;;7.40;83.50;;;;;;5025740;28;20029;-70
2023/02/01 08:01:24;;;;;;;2.88;1.20;;;7.40;83.40;;;;;;5026012;28;20033;-69
2023/02/01 08:04:00;;;;;;;1.90;1.13;;;7.40;83.40;;;;;;5025475;28;20028;-69
2023/02/01 08:06:27;;;;;;;3.85;1.30;;;7.40;83.40;;;;;;5025921;28;20041;-69
2023/02/01 08:08:53;;;;;;;4.25;1.25;;;7.40;83.40;;;;;;5017042;28;20056;-70
2023/02/01 08:11:20;;;;;;;1.10;0.73;;;7.50;83.40;;;;;;5020702;28;20021;-69
2023/02/01 08:13:47;;;;;;;5.50;1.40;;;7.50;83.30;;;;;;5023239;28;20484;-69
2023/02/01 08:16:15;;;;;;;4.80;1.00;;;7.60;83.30;;;;;;5026922;28;20530;-69
2023/02/01 08:18:41;;;;;;;2.45;1.00;;;7.50;83.10;;;;;;5023364;28;20087;-69
2023/02/01 08:21:10;;;;;;;1.65;1.00;;;7.60;83.20;;;;;;5028176;28;20022;-69
2023/02/01 08:23:37;;;;;;;4.47;1.25;;;7.60;83.20;;;;;;5027522;28;20017;-69
2023/02/01 08:26:23;;;;;;;2.67;0.88;;;7.60;83.10;;;;;;5027940;28;20029;-70
2023/02/01 08:28:51;;;;;;;7.32;1.27;;;7.60;83.00;;;;;;5027884;28;20029;-69
2023/02/01 08:31:21;;;;;;;3.20;1.10;;;7.60;83.00;;;;;;5027819;28;20040;-70
2023/02/01 08:33:50;;;;;;;4.10;1.23;;;7.70;83.00;;;;;;5025186;28;20129;-69
2023/02/01 08:36:15;;;;;;;3.63;1.08;;;7.70;82.90;;;;;;5028220;28;20369;-69
2023/02/01 08:38:41;;;;;;;6.18;1.38;;;7.70;82.80;;;;;;5026912;28;20100;-69
2023/02/01 08:41:12;;;;;;;2.55;0.77;;;7.80;82.80;;;;;;5029056;28;20034;-69
2023/02/01 08:43:37;;;;;;;1.55;0.80;;;7.90;82.70;;;;;;5025512;28;20050;-69
2023/02/01 08:46:05;;;;;;;1.35;0.80;;;8.00;82.50;;;;;;5026812;28;20547;-69
2023/02/01 08:48:31;;;;;;;2.97;1.35;;;8.00;82.30;;;;;;5028467;28;20021;-70
2023/02/01 08:51:00;;;;;;;1.88;0.90;;;8.10;82.20;;;;;;5026862;28;20391;-69
2023/02/01 08:53:25;;;;;;;4.03;1.00;;;8.20;82.10;;;;;;5028750;28;20029;-70
2023/02/01 08:55:51;;;;;;;3.83;1.20;;;8.20;81.90;;;;;;5027834;28;20512;-69
2023/02/01 08:58:16;;;;;;;2.33;1.10;;;8.30;81.60;;;;;;5030561;28;20096;-69
2023/02/01 09:00:44;;;;;;;5.65;1.15;;;8.30;81.60;;;;;;5026098;28;20393;-69
2023/02/01 09:03:11;;;;;;;2.42;1.08;;;8.40;81.50;;;;;;5029682;28;20049;-69
2023/02/01 09:05:38;;;;;;;1.50;0.77;;;8.50;81.40;;;;;;5031866;28;20099;-70
2023/02/01 09:08:04;;;;;;;4.85;0.95;;;8.50;81.20;;;;;;5031574;28;20057;-70
2023/02/01 09:10:30;;;;;;;6.78;1.35;;;8.50;80.80;;;;;;5030272;28;20061;-70
2023/02/01 09:12:55;;;;;;;9.18;1.55;;;8.50;80.90;;;;;;5028977;28;20798;-69
2023/02/01 09:15:21;;;;;;;6.30;1.75;;;8.50;80.80;;;;;;5031914;28;20140;-69
2023/02/01 09:17:47;;;;;;;7.55;1.55;;;8.60;80.80;;;;;;5028998;28;20033;-69
2023/02/01 09:20:19;;;;;;;5.85;1.60;;;8.60;80.60;;;;;;5029930;28;20040;-69
2023/02/01 09:22:45;;;;;;;3.80;1.20;;;8.60;80.80;;;;;;5031064;28;20025;-69
2023/02/01 09:25:11;;;;;;;6.13;1.33;;;8.60;80.90;;;;;;5028729;28;20738;-69
2023/02/01 09:27:36;;;;;;;5.88;1.95;;;8.70;81.00;;;;;;5030716;28;20029;-69
2023/02/01 09:30:04;;;;;;;7.47;1.48;;;8.70;80.90;;;;;;5027797;28;20083;-69
2023/02/01 09:32:30;;;;;;;8.18;1.67;;;8.70;80.70;;;;;;5029335;28;20103;-69
2023/02/01 09:34:55;;;;;;;3.78;1.15;;;8.60;80.70;;;;;;5029564;28;20480;-70
2023/02/01 09:37:21;;;;;;;6.05;1.60;;;8.70;80.70;;;;;;5030323;28;20037;-69
2023/02/01 09:39:47;;;;;;;3.78;1.45;;;8.70;80.70;;;;;;5029233;28;20733;-69
2023/02/01 09:42:26;;;;;;;4.30;1.38;;;8.70;80.70;;;;;;5031320;28;20140;-69
2023/02/01 09:45:25;;;;;;;4.88;1.20;;;8.70;80.40;;;;;;5027553;28;20163;-70
2023/02/01 09:47:59;;;;;;;3.97;1.42;;;8.80;80.60;;;;;;5028780;28;20457;-69
2023/02/01 09:50:38;;;;;;;6.65;1.80;;;8.80;80.10;;;;;;5029537;28;20031;-70
2023/02/01 09:53:23;;;;;;;2.72;1.05;;;8.80;80.00;;;;;;5030224;28;20025;-70
2023/02/01 09:55:50;;;;;;;5.35;1.52;;;8.80;80.10;;;;;;5030349;28;20021;-69
2023/02/01 09:58:33;;;;;;;7.82;1.60;;;8.70;80.30;;;;;;5031710;28;20040;-70
2023/02/01 10:01:00;;;;;;;4.90;1.63;;;8.70;80.20;;;;;;5027836;28;20029;-70
2023/02/01 10:03:35;;;;;;;5.97;1.58;;;8.70;80.30;;;;;;5029945;28;20036;-71
2023/02/01 10:06:09;;;;;;;6.45;1.52;;;8.70;80.30;;;;;;5029670;28;20053;-70
2023/02/01 10:09:13;;;;;;;2.97;1.38;;;8.70;80.40;;;;;;5028964;28;20096;-70
2023/02/01 10:12:00;;;;;;;5.20;1.40;;;8.60;80.90;;;;;;5028654;28;20033;-69
2023/02/01 10:15:01;;;;;;;8.82;1.45;;;8.60;80.30;;;;;;5029398;28;20431;-69
2023/02/01 10:17:59;;;;;;;3.63;1.17;;;8.60;80.40;;;;;;5028962;28;20022;-69
2023/02/01 10:21:17;;;;;;;2.92;1.00;;;8.60;80.50;;;;;;5028096;28;20083;-69
2023/02/01 10:23:42;;;;;;;3.45;1.38;;;8.60;80.40;;;;;;5005099;28;20096;-70
2023/02/01 10:26:27;;;;;;;8.85;1.52;;;8.60;80.50;;;;;;5034470;28;20045;-69
2023/02/01 10:28:56;;;;;;;2.92;1.50;;;8.60;80.50;;;;;;5027227;28;20029;-69
2023/02/01 10:31:26;;;;;;;5.40;1.88;;;8.60;80.40;;;;;;5028477;28;20037;-69
2023/02/01 10:33:59;;;;;;;4.07;1.35;;;8.60;80.60;;;;;;5027319;28;20064;-69
2023/02/01 10:36:36;;;;;;;3.30;1.23;;;8.50;81.40;;;;;;5026551;28;20018;-69
2023/02/01 10:39:14;;;;;;;5.22;1.70;;;8.50;81.10;;;;;;5027193;28;20819;-69
2023/02/01 10:41:40;;;;;;;6.85;1.75;;;8.40;81.40;;;;;;5028242;28;20492;-70
2023/02/01 10:44:16;;;;;;;2.95;1.42;;;8.30;81.70;;;;;;5027661;28;20083;-69
2023/02/01 10:46:42;;;;;;;7.18;1.90;;;8.30;82.10;;;;;;5029733;28;20029;-69
2023/02/01 10:49:15;;;;;;;3.92;2.22;;;8.30;82.20;;;;;;5027006;28;20105;-70
2023/02/01 10:52:01;;;;;;;5.43;1.55;;;8.30;82.40;;;;;;5030173;28;20028;-69
2023/02/01 10:54:35;;;;;;;4.82;1.52;;;8.20;82.70;;;;;;5027150;28;20034;-69
2023/02/01 10:57:01;;;;;;;4.72;1.35;;;8.20;82.90;;;;;;5024728;28;20021;-69
2023/02/01 10:59:29;;;;;;;9.00;1.92;;;8.20;83.20;;;;;;5026220;28;20021;-69
2023/02/01 11:02:01;;;;;;;5.03;1.67;;;8.10;83.50;;;;;;5028856;28;20029;-69
2023/02/01 11:04:33;;;;;;;5.10;1.23;;;8.00;83.70;;;;;;5028010;28;20504;-69
2023/02/01 11:07:12;;;;;;;5.45;1.20;;;8.00;84.50;;;;;;5028407;28;20028;-70
2023/02/01 11:09:40;;;;;;;2.90;1.10;;;8.00;84.10;;;;;;5025458;28;20102;-69
2023/02/01 11:12:30;;;;;;;3.10;1.13;;;8.00;84.10;;;;;;5027997;28;20049;-68
2023/02/01 11:15:19;;;;;;;2.65;1.10;;;8.00;84.30;;;;;;5025034;28;20480;-68
2023/02/01 11:17:48;;;;;;;4.03;1.38;;;8.00;84.50;;;;;;5027096;28;20041;-68
2023/02/01 11:20:40;;;;;;;3.53;1.15;;;7.90;84.60;;;;;;5025958;28;20029;-69
2023/02/01 11:23:16;;;;;;;;;;;8.00;84.70;;;;;;5027625;28;20198;-69
2023/02/01 11:25:53;;;;;;;5.85;1.20;;;7.90;84.70;;;;;;5028435;28;19921;-69
2023/02/01 11:28:20;;;;;;;8.00;1.70;;;7.90;84.60;;;;;;5028188;28;20041;-69
2023/02/01 11:30:48;;;;;;;5.85;1.67;;;7.90;84.60;;;;;;5026372;28;20439;-69
2023/02/01 11:33:18;;;;;;;8.98;1.63;;;7.90;84.60;;;;;;5027466;28;20036;-68
2023/02/01 11:35:44;;;;;;;4.05;1.30;;;7.90;84.50;;;;;;5027324;28;20021;-69
2023/02/01 11:38:19;;;;;;;8.48;1.65;;;8.00;84.50;;;;;;5027092;28;20079;-69
2023/02/01 11:40:45;;;;;;;6.57;1.35;;;8.00;84.40;;;;;;5027754;28;20128;-68
2023/02/01 11:43:28;;;;;;;5.68;1.70;;;8.00;84.30;;;;;;5024642;28;20296;-68
2023/02/01 11:46:02;;;;;;;3.75;1.08;;;8.10;84.30;;;;;;5024726;28;20033;-68
2023/02/01 11:48:31;;;;;;;3.70;1.13;;;8.10;84.20;;;;;;5026354;28;20517;-69
2023/02/01 11:51:22;;;;;;;4.18;1.25;;;8.10;84.20;;;;;;5025298;28;20029;-68
2023/02/01 11:54:10;;;;;;;4.15;1.15;;;8.10;84.10;;;;;;5034262;28;20104;-68
2023/02/01 11:57:00;;;;;;;6.60;1.92;;;8.10;84.30;;;;;;5024570;28;20415;-68
2023/02/01 11:59:34;;;;;;;6.28;1.33;;;8.10;84.30;;;;;;5023918;28;20035;-69
2023/02/01 12:02:21;;;;;;;6.22;1.73;;;8.10;84.30;;;;;;5028685;28;20844;-68
2023/02/01 12:05:22;;;;;;;8.30;1.92;;;8.20;84.30;;;;;;5025366;28;20069;-69
2023/02/01 12:08:03;;;;;;;5.80;1.48;;;8.20;84.20;;;;;;5030518;28;20044;-68
2023/02/01 12:10:54;;;;;;;4.38;1.13;;;8.20;84.10;;;;;;5024138;28;20032;-68
2023/02/01 12:13:41;;;;;;;2.88;1.25;;;8.20;84.10;;;;;;5029227;28;20032;-68
2023/02/01 12:16:42;;;;;;;4.30;1.60;;;8.20;84.00;;;;;;5027741;28;20025;-69
2023/02/01 12:19:40;;;;;;;8.05;1.40;;;8.30;84.00;;;;;;5021400;28;20041;-68
2023/02/01 12:22:42;;;;;;;5.28;1.58;;;8.30;83.90;;;;;;5028997;28;20542;-69
2023/02/01 12:25:57;;;;;;;3.20;0.90;;;8.40;83.80;;;;;;5029008;28;20029;-69
2023/02/01 12:28:33;;;;;;;3.92;1.10;;;8.40;83.70;;;;;;5032299;28;20021;-69
2023/02/01 12:31:27;;;;;;;5.60;1.50;;;8.40;83.60;;;;;;5030028;28;20621;-68
2023/02/01 12:34:10;;;;;;;3.42;1.10;;;8.50;83.60;;;;;;5027578;28;20033;-68
2023/02/01 12:36:58;;;;;;;9.23;1.52;;;8.60;83.50;;;;;;5025294;28;20037;-68
2023/02/01 12:39:31;;;;;;;6.15;1.10;;;8.60;83.30;;;;;;5022697;28;20033;-68
2023/02/01 12:42:25;;;;;;;4.60;1.10;;;8.60;83.20;;;;;;5026335;28;20108;-69
2023/02/01 12:44:58;;;;;;;6.63;1.52;;;8.70;83.20;;;;;;5026233;28;20076;-69
2023/02/01 12:47:50;;;;;;;3.00;1.20;;;8.70;83.60;;;;;;5030401;28;20018;-68
2023/02/01 12:50:47;;;;;;;4.25;1.10;;;8.70;83.00;;;;;;5024881;28;20032;-69
2023/02/01 12:53:20;;;;;;;3.90;1.05;;;8.80;82.90;;;;;;5025596;28;20028;-69
2023/02/01 12:55:53;;;;;;;5.25;1.00;;;8.80;83.00;;;;;;5027178;28;20047;-69
2023/02/01 12:58:24;;;;;;;5.20;1.67;;;8.80;82.80;;;;;;5027128;28;20029;-68
2023/02/01 13:01:00;;;;;;;4.00;1.30;;;8.90;82.80;;;;;;5027631;28;20017;-69
2023/02/01 13:03:33;;;;;;;4.50;1.38;;;8.90;82.80;;;;;;5027941;28;20522;-68
2023/02/01 13:06:26;;;;;;;4.53;1.23;;;8.90;82.60;;;;;;5024979;28;20040;-68
2023/02/01 13:09:09;;;;;;;5.97;1.45;;;8.90;82.60;;;;;;5021255;28;20049;-69
2023/02/01 13:11:38;;;;;;;7.63;1.80;;;8.90;82.50;;;;;;5024967;28;20511;-69
2023/02/01 13:14:37;;;;;;;9.38;1.40;;;8.90;82.30;;;;;;5027045;28;20365;-69
2023/02/01 13:17:13;;;;;;;2.50;1.33;;;8.90;82.30;;;;;;5024313;28;20506;-68
2023/02/01 13:19:39;;;;;;;5.53;1.55;;;8.90;82.40;;;;;;5025512;28;20037;-68
2023/02/01 13:22:27;;;;;;;6.63;1.38;;;8.90;82.20;;;;;;5029465;28;20037;-68
2023/02/01 13:25:21;;;;;;;4.53;1.83;;;8.90;82.10;;;;;;5024923;28;20091;-69
2023/02/01 13:27:47;;;;;;;3.75;1.25;;;8.90;82.20;;;;;;5026574;28;20022;-70
2023/02/01 13:30:34;;;;;;;1.63;1.05;;;8.90;82.00;;;;;;5026212;28;20037;-68
2023/02/01 13:33:26;;;;;;;3.80;1.02;;;8.90;82.20;;;;;;5024904;28;20087;-68
2023/02/01 13:36:01;;;;;;;5.13;1.40;;;8.90;82.20;;;;;;5027330;28;20049;-69
2023/02/01 13:38:59;;;;;;;6.45;1.35;;;8.90;82.20;;;;;;5026480;28;20030;-69
2023/02/01 13:41:29;;;;;;;2.00;0.98;;;8.90;82.10;;;;;;5010883;28;20042;-69
2023/02/01 13:44:02;;;;;;;6.90;1.58;;;8.90;82.00;;;;;;5024550;28;20637;-69
2023/02/01 13:46:29;;;;;;;8.35;1.60;;;8.90;81.70;;;;;;5026583;28;20048;-69
2023/02/01 13:48:59;;;;;;;2.03;0.93;;;8.90;81.80;;;;;;5027266;28;20034;-69
2023/02/01 13:51:40;;;;;;;8.60;1.50;;;8.90;81.70;;;;;;5028961;28;20024;-69